sensor_id;sensor_type;location;lat;lon;timestamp;P1;durP1;ratioP1;P2;durP2;ratioP2
70301;SDS011;57706;56.326;43.882;2024-01-16T00:02:01;16.00;;;7.07;;
70301;SDS011;57706;56.326;43.882;2024-01-16T00:04:28;15.90;;;7.63;;
70301;SDS011;57706;56.326;43.882;2024-01-16T00:06:55;16.25;;;7.47;;
70301;SDS011;57706;56.326;43.882;2024-01-16T00:11:47;10.32;;;5.38;;
70301;SDS011;57706;56.326;43.882;2024-01-16T00:14:13;15.68;;;6.50;;
70301;SDS011;57706;56.326;43.882;2024-01-16T00:16:42;13.60;;;6.32;;
70301;SDS011;57706;56.326;43.882;2024-01-16T00:19:27;13.77;;;6.35;;
70301;SDS011;57706;56.326;43.882;2024-01-16T00:24:18;12.50;;;5.80;;
70301;SDS011;57706;56.326;43.882;2024-01-16T00:26:44;9.50;;;4.45;;
70301;SDS011;57706;56.326;43.882;2024-01-16T00:34:23;15.45;;;6.72;;
70301;SDS011;57706;56.326;43.882;2024-01-16T00:39:15;12.77;;;5.60;;
70301;SDS011;57706;56.326;43.882;2024-01-16T00:41:40;12.18;;;5.93;;
70301;SDS011;57706;56.326;43.882;2024-01-16T00:44:06;12.38;;;6.15;;
70301;SDS011;57706;56.326;43.882;2024-01-16T00:46:33;15.02;;;6.13;;
70301;SDS011;57706;56.326;43.882;2024-01-16T00:51:24;15.73;;;7.28;;
70301;SDS011;57706;56.326;43.882;2024-01-16T00:53:51;17.77;;;9.07;;
70301;SDS011;57706;56.326;43.882;2024-01-16T00:58:42;16.95;;;7.60;;
70301;SDS011;57706;56.326;43.882;2024-01-16T01:01:08;21.30;;;9.40;;
70301;SDS011;57706;56.326;43.882;2024-01-16T01:05:59;20.55;;;8.57;;
70301;SDS011;57706;56.326;43.882;2024-01-16T01:08:26;13.00;;;7.93;;
70301;SDS011;57706;56.326;43.882;2024-01-16T01:13:17;16.15;;;7.90;;
70301;SDS011;57706;56.326;43.882;2024-01-16T01:15:44;13.80;;;7.07;;
70301;SDS011;57706;56.326;43.882;2024-01-16T01:20:35;17.98;;;7.32;;
70301;SDS011;57706;56.326;43.882;2024-01-16T01:28:10;22.05;;;10.68;;
70301;SDS011;57706;56.326;43.882;2024-01-16T01:30:37;18.63;;;9.00;;
70301;SDS011;57706;56.326;43.882;2024-01-16T01:33:21;16.27;;;8.05;;
70301;SDS011;57706;56.326;43.882;2024-01-16T01:35:47;14.25;;;7.28;;
70301;SDS011;57706;56.326;43.882;2024-01-16T01:38:12;15.45;;;7.47;;
70301;SDS011;57706;56.326;43.882;2024-01-16T01:40:38;15.98;;;6.75;;
70301;SDS011;57706;56.326;43.882;2024-01-16T01:43:17;16.48;;;8.43;;
70301;SDS011;57706;56.326;43.882;2024-01-16T01:48:39;12.90;;;6.03;;
70301;SDS011;57706;56.326;43.882;2024-01-16T01:51:07;13.77;;;6.35;;
70301;SDS011;57706;56.326;43.882;2024-01-16T01:53:33;13.55;;;6.07;;
70301;SDS011;57706;56.326;43.882;2024-01-16T01:56:02;10.43;;;5.30;;
70301;SDS011;57706;56.326;43.882;2024-01-16T01:58:32;12.30;;;5.35;;
70301;SDS011;57706;56.326;43.882;2024-01-16T02:00:59;14.07;;;6.45;;
70301;SDS011;57706;56.326;43.882;2024-01-16T02:03:27;15.00;;;7.97;;
70301;SDS011;57706;56.326;43.882;2024-01-16T02:05:55;13.90;;;6.97;;
70301;SDS011;57706;56.326;43.882;2024-01-16T02:08:21;15.38;;;6.57;;
70301;SDS011;57706;56.326;43.882;2024-01-16T02:10:47;11.77;;;5.22;;
70301;SDS011;57706;56.326;43.882;2024-01-16T02:13:15;13.55;;;6.43;;
70301;SDS011;57706;56.326;43.882;2024-01-16T02:16:04;9.65;;;6.40;;
70301;SDS011;57706;56.326;43.882;2024-01-16T02:18:31;14.70;;;6.57;;
70301;SDS011;57706;56.326;43.882;2024-01-16T02:20:59;11.20;;;5.82;;
70301;SDS011;57706;56.326;43.882;2024-01-16T02:23:29;11.82;;;6.35;;
70301;SDS011;57706;56.326;43.882;2024-01-16T02:28:44;10.60;;;5.57;;
70301;SDS011;57706;56.326;43.882;2024-01-16T02:31:10;15.57;;;7.90;;
70301;SDS011;57706;56.326;43.882;2024-01-16T02:33:36;16.52;;;8.38;;
70301;SDS011;57706;56.326;43.882;2024-01-16T02:36:02;12.50;;;5.80;;
70301;SDS011;57706;56.326;43.882;2024-01-16T02:41:15;10.85;;;6.35;;
70301;SDS011;57706;56.326;43.882;2024-01-16T02:43:42;11.25;;;6.78;;
70301;SDS011;57706;56.326;43.882;2024-01-16T02:46:07;13.38;;;6.88;;
70301;SDS011;57706;56.326;43.882;2024-01-16T02:48:36;12.30;;;6.13;;
70301;SDS011;57706;56.326;43.882;2024-01-16T02:51:03;11.98;;;7.20;;
70301;SDS011;57706;56.326;43.882;2024-01-16T02:53:29;14.65;;;7.10;;
70301;SDS011;57706;56.326;43.882;2024-01-16T02:56:14;15.65;;;7.97;;
70301;SDS011;57706;56.326;43.882;2024-01-16T02:58:40;12.20;;;6.20;;
70301;SDS011;57706;56.326;43.882;2024-01-16T03:01:05;14.68;;;7.22;;
70301;SDS011;57706;56.326;43.882;2024-01-16T03:03:31;15.93;;;6.85;;
70301;SDS011;57706;56.326;43.882;2024-01-16T03:05:57;12.10;;;6.93;;
70301;SDS011;57706;56.326;43.882;2024-01-16T03:08:23;16.20;;;6.95;;
70301;SDS011;57706;56.326;43.882;2024-01-16T03:10:49;17.40;;;8.50;;
70301;SDS011;57706;56.326;43.882;2024-01-16T03:13:15;21.33;;;9.48;;
70301;SDS011;57706;56.326;43.882;2024-01-16T03:15:41;15.27;;;8.38;;
70301;SDS011;57706;56.326;43.882;2024-01-16T03:18:07;13.70;;;7.90;;
70301;SDS011;57706;56.326;43.882;2024-01-16T03:20:32;14.52;;;8.10;;
70301;SDS011;57706;56.326;43.882;2024-01-16T03:22:58;16.02;;;8.52;;
70301;SDS011;57706;56.326;43.882;2024-01-16T03:25:24;10.90;;;6.28;;
70301;SDS011;57706;56.326;43.882;2024-01-16T03:27:50;17.55;;;8.27;;
70301;SDS011;57706;56.326;43.882;2024-01-16T03:30:15;19.38;;;9.18;;
70301;SDS011;57706;56.326;43.882;2024-01-16T03:32:41;19.88;;;9.63;;
70301;SDS011;57706;56.326;43.882;2024-01-16T03:35:07;17.35;;;8.48;;
70301;SDS011;57706;56.326;43.882;2024-01-16T03:37:33;25.42;;;10.77;;
70301;SDS011;57706;56.326;43.882;2024-01-16T03:39:59;14.38;;;7.82;;
70301;SDS011;57706;56.326;43.882;2024-01-16T03:42:26;19.67;;;9.00;;
70301;SDS011;57706;56.326;43.882;2024-01-16T03:44:52;21.30;;;9.35;;
70301;SDS011;57706;56.326;43.882;2024-01-16T03:47:18;21.00;;;8.55;;
70301;SDS011;57706;56.326;43.882;2024-01-16T03:49:44;16.50;;;7.63;;
70301;SDS011;57706;56.326;43.882;2024-01-16T03:52:28;22.63;;;9.85;;
70301;SDS011;57706;56.326;43.882;2024-01-16T03:54:54;18.50;;;9.07;;
70301;SDS011;57706;56.326;43.882;2024-01-16T03:57:20;22.20;;;10.05;;
70301;SDS011;57706;56.326;43.882;2024-01-16T03:59:46;17.25;;;8.27;;
70301;SDS011;57706;56.326;43.882;2024-01-16T04:02:12;22.15;;;10.38;;
70301;SDS011;57706;56.326;43.882;2024-01-16T04:04:37;18.35;;;9.38;;
70301;SDS011;57706;56.326;43.882;2024-01-16T04:09:49;22.75;;;10.38;;
70301;SDS011;57706;56.326;43.882;2024-01-16T04:12:14;19.25;;;9.50;;
70301;SDS011;57706;56.326;43.882;2024-01-16T04:14:40;20.77;;;9.20;;
70301;SDS011;57706;56.326;43.882;2024-01-16T04:17:06;25.33;;;10.43;;
70301;SDS011;57706;56.326;43.882;2024-01-16T04:19:32;21.25;;;10.32;;
70301;SDS011;57706;56.326;43.882;2024-01-16T04:21:59;28.70;;;11.15;;
70301;SDS011;57706;56.326;43.882;2024-01-16T04:24:29;23.52;;;10.63;;
70301;SDS011;57706;56.326;43.882;2024-01-16T04:26:55;20.92;;;9.07;;
70301;SDS011;57706;56.326;43.882;2024-01-16T04:29:20;19.77;;;9.95;;
70301;SDS011;57706;56.326;43.882;2024-01-16T04:31:46;24.42;;;10.60;;
70301;SDS011;57706;56.326;43.882;2024-01-16T04:34:12;20.70;;;11.30;;
70301;SDS011;57706;56.326;43.882;2024-01-16T04:36:38;20.45;;;9.60;;
70301;SDS011;57706;56.326;43.882;2024-01-16T04:39:04;18.85;;;9.60;;
70301;SDS011;57706;56.326;43.882;2024-01-16T04:44:15;16.70;;;8.00;;
70301;SDS011;57706;56.326;43.882;2024-01-16T04:46:41;18.65;;;8.93;;
70301;SDS011;57706;56.326;43.882;2024-01-16T04:49:06;22.10;;;9.77;;
70301;SDS011;57706;56.326;43.882;2024-01-16T04:51:32;19.58;;;8.55;;
70301;SDS011;57706;56.326;43.882;2024-01-16T04:53:58;18.70;;;8.57;;
70301;SDS011;57706;56.326;43.882;2024-01-16T04:56:24;17.70;;;8.35;;
70301;SDS011;57706;56.326;43.882;2024-01-16T04:58:50;21.05;;;9.27;;
70301;SDS011;57706;56.326;43.882;2024-01-16T05:01:17;22.60;;;9.85;;
70301;SDS011;57706;56.326;43.882;2024-01-16T05:03:43;21.70;;;10.75;;
70301;SDS011;57706;56.326;43.882;2024-01-16T05:06:12;22.60;;;10.77;;
70301;SDS011;57706;56.326;43.882;2024-01-16T05:08:41;24.33;;;11.05;;
70301;SDS011;57706;56.326;43.882;2024-01-16T05:11:07;23.55;;;9.95;;
70301;SDS011;57706;56.326;43.882;2024-01-16T05:13:34;26.00;;;11.38;;
70301;SDS011;57706;56.326;43.882;2024-01-16T05:16:00;25.83;;;10.38;;
70301;SDS011;57706;56.326;43.882;2024-01-16T05:18:26;25.65;;;11.60;;
70301;SDS011;57706;56.326;43.882;2024-01-16T05:20:51;23.20;;;11.50;;
70301;SDS011;57706;56.326;43.882;2024-01-16T05:23:17;24.85;;;12.20;;
70301;SDS011;57706;56.326;43.882;2024-01-16T05:25:43;23.02;;;11.13;;
70301;SDS011;57706;56.326;43.882;2024-01-16T05:28:09;20.17;;;9.82;;
70301;SDS011;57706;56.326;43.882;2024-01-16T05:30:35;25.65;;;11.27;;
70301;SDS011;57706;56.326;43.882;2024-01-16T05:33:01;24.35;;;11.02;;
70301;SDS011;57706;56.326;43.882;2024-01-16T05:35:27;21.92;;;10.50;;
70301;SDS011;57706;56.326;43.882;2024-01-16T05:37:53;25.70;;;10.95;;
70301;SDS011;57706;56.326;43.882;2024-01-16T05:40:21;25.73;;;11.70;;
70301;SDS011;57706;56.326;43.882;2024-01-16T05:42:49;24.40;;;11.10;;
70301;SDS011;57706;56.326;43.882;2024-01-16T05:45:16;27.23;;;12.30;;
70301;SDS011;57706;56.326;43.882;2024-01-16T05:52:52;22.23;;;11.05;;
70301;SDS011;57706;56.326;43.882;2024-01-16T05:55:18;24.08;;;11.55;;
70301;SDS011;57706;56.326;43.882;2024-01-16T05:57:46;26.85;;;11.63;;
70301;SDS011;57706;56.326;43.882;2024-01-16T06:00:12;22.00;;;9.95;;
70301;SDS011;57706;56.326;43.882;2024-01-16T06:02:39;23.77;;;10.73;;
70301;SDS011;57706;56.326;43.882;2024-01-16T06:05:04;27.35;;;11.70;;
70301;SDS011;57706;56.326;43.882;2024-01-16T06:07:31;21.98;;;10.93;;
70301;SDS011;57706;56.326;43.882;2024-01-16T06:09:57;25.55;;;11.55;;
70301;SDS011;57706;56.326;43.882;2024-01-16T06:12:22;24.67;;;11.88;;
70301;SDS011;57706;56.326;43.882;2024-01-16T06:14:48;23.48;;;11.20;;
70301;SDS011;57706;56.326;43.882;2024-01-16T06:17:14;22.83;;;10.38;;
70301;SDS011;57706;56.326;43.882;2024-01-16T06:19:40;23.92;;;10.93;;
70301;SDS011;57706;56.326;43.882;2024-01-16T06:24:50;25.17;;;11.57;;
70301;SDS011;57706;56.326;43.882;2024-01-16T06:27:16;28.50;;;11.10;;
70301;SDS011;57706;56.326;43.882;2024-01-16T06:30:00;21.05;;;10.23;;
70301;SDS011;57706;56.326;43.882;2024-01-16T06:32:26;22.50;;;10.25;;
70301;SDS011;57706;56.326;43.882;2024-01-16T06:34:52;17.08;;;9.48;;
70301;SDS011;57706;56.326;43.882;2024-01-16T06:37:18;25.40;;;11.13;;
70301;SDS011;57706;56.326;43.882;2024-01-16T06:39:43;24.83;;;12.73;;
70301;SDS011;57706;56.326;43.882;2024-01-16T06:42:09;17.75;;;9.43;;
70301;SDS011;57706;56.326;43.882;2024-01-16T06:44:35;25.60;;;12.07;;
70301;SDS011;57706;56.326;43.882;2024-01-16T06:47:20;21.92;;;10.43;;
70301;SDS011;57706;56.326;43.882;2024-01-16T06:49:45;19.48;;;8.80;;
70301;SDS011;57706;56.326;43.882;2024-01-16T06:52:11;25.58;;;12.88;;
70301;SDS011;57706;56.326;43.882;2024-01-16T06:54:37;21.30;;;11.07;;
70301;SDS011;57706;56.326;43.882;2024-01-16T06:57:03;23.88;;;11.48;;
70301;SDS011;57706;56.326;43.882;2024-01-16T06:59:29;23.70;;;13.05;;
70301;SDS011;57706;56.326;43.882;2024-01-16T07:01:55;24.30;;;11.60;;
70301;SDS011;57706;56.326;43.882;2024-01-16T07:04:40;25.42;;;10.68;;
70301;SDS011;57706;56.326;43.882;2024-01-16T07:07:05;21.10;;;10.98;;
70301;SDS011;57706;56.326;43.882;2024-01-16T07:09:31;19.52;;;9.82;;
70301;SDS011;57706;56.326;43.882;2024-01-16T07:11:57;21.10;;;10.32;;
70301;SDS011;57706;56.326;43.882;2024-01-16T07:14:23;23.85;;;10.50;;
70301;SDS011;57706;56.326;43.882;2024-01-16T07:16:48;23.17;;;10.52;;
70301;SDS011;57706;56.326;43.882;2024-01-16T07:19:15;21.23;;;10.32;;
70301;SDS011;57706;56.326;43.882;2024-01-16T07:22:00;20.42;;;9.93;;
70301;SDS011;57706;56.326;43.882;2024-01-16T07:24:25;24.13;;;11.40;;
70301;SDS011;57706;56.326;43.882;2024-01-16T07:26:51;19.98;;;9.30;;
70301;SDS011;57706;56.326;43.882;2024-01-16T07:29:19;21.90;;;10.75;;
70301;SDS011;57706;56.326;43.882;2024-01-16T07:31:45;23.70;;;12.40;;
70301;SDS011;57706;56.326;43.882;2024-01-16T07:34:11;26.52;;;11.95;;
70301;SDS011;57706;56.326;43.882;2024-01-16T07:36:38;21.00;;;10.75;;
70301;SDS011;57706;56.326;43.882;2024-01-16T07:39:22;18.60;;;7.95;;
70301;SDS011;57706;56.326;43.882;2024-01-16T07:41:48;19.65;;;8.77;;
70301;SDS011;57706;56.326;43.882;2024-01-16T07:44:14;20.25;;;10.05;;
70301;SDS011;57706;56.326;43.882;2024-01-16T07:46:40;25.08;;;11.60;;
70301;SDS011;57706;56.326;43.882;2024-01-16T07:49:24;15.95;;;8.93;;
70301;SDS011;57706;56.326;43.882;2024-01-16T07:51:50;22.77;;;10.77;;
70301;SDS011;57706;56.326;43.882;2024-01-16T07:54:16;19.65;;;9.80;;
70301;SDS011;57706;56.326;43.882;2024-01-16T07:56:42;18.85;;;9.25;;
70301;SDS011;57706;56.326;43.882;2024-01-16T07:59:08;16.80;;;8.00;;
70301;SDS011;57706;56.326;43.882;2024-01-16T08:01:34;22.08;;;11.05;;
70301;SDS011;57706;56.326;43.882;2024-01-16T08:04:00;22.58;;;10.15;;
70301;SDS011;57706;56.326;43.882;2024-01-16T08:06:45;19.38;;;9.57;;
70301;SDS011;57706;56.326;43.882;2024-01-16T08:09:12;18.42;;;9.88;;
70301;SDS011;57706;56.326;43.882;2024-01-16T08:11:39;21.95;;;10.43;;
70301;SDS011;57706;56.326;43.882;2024-01-16T08:14:05;19.45;;;9.30;;
70301;SDS011;57706;56.326;43.882;2024-01-16T08:16:31;16.80;;;8.93;;
70301;SDS011;57706;56.326;43.882;2024-01-16T08:18:57;21.25;;;10.25;;
70301;SDS011;57706;56.326;43.882;2024-01-16T08:21:23;19.83;;;9.00;;
70301;SDS011;57706;56.326;43.882;2024-01-16T08:23:49;16.00;;;8.90;;
70301;SDS011;57706;56.326;43.882;2024-01-16T08:26:15;19.10;;;9.30;;
70301;SDS011;57706;56.326;43.882;2024-01-16T08:28:41;15.90;;;8.07;;
70301;SDS011;57706;56.326;43.882;2024-01-16T08:31:26;18.33;;;9.35;;
70301;SDS011;57706;56.326;43.882;2024-01-16T08:33:52;16.45;;;8.95;;
70301;SDS011;57706;56.326;43.882;2024-01-16T08:36:21;20.92;;;10.05;;
70301;SDS011;57706;56.326;43.882;2024-01-16T08:38:47;20.95;;;9.98;;
70301;SDS011;57706;56.326;43.882;2024-01-16T08:41:13;24.52;;;11.45;;
70301;SDS011;57706;56.326;43.882;2024-01-16T08:43:38;26.42;;;11.85;;
70301;SDS011;57706;56.326;43.882;2024-01-16T08:46:04;25.05;;;12.38;;
70301;SDS011;57706;56.326;43.882;2024-01-16T08:48:30;28.08;;;13.55;;
70301;SDS011;57706;56.326;43.882;2024-01-16T08:50:56;21.60;;;10.13;;
70301;SDS011;57706;56.326;43.882;2024-01-16T08:53:22;21.65;;;10.88;;
70301;SDS011;57706;56.326;43.882;2024-01-16T08:55:48;23.42;;;11.73;;
70301;SDS011;57706;56.326;43.882;2024-01-16T08:58:14;27.75;;;11.90;;
70301;SDS011;57706;56.326;43.882;2024-01-16T09:00:59;28.38;;;13.75;;
70301;SDS011;57706;56.326;43.882;2024-01-16T09:03:25;26.65;;;12.00;;
70301;SDS011;57706;56.326;43.882;2024-01-16T09:05:50;26.75;;;13.27;;
70301;SDS011;57706;56.326;43.882;2024-01-16T09:08:16;31.65;;;14.40;;
70301;SDS011;57706;56.326;43.882;2024-01-16T09:10:42;22.42;;;10.43;;
70301;SDS011;57706;56.326;43.882;2024-01-16T09:13:08;26.63;;;13.52;;
70301;SDS011;57706;56.326;43.882;2024-01-16T09:15:34;24.67;;;11.95;;
70301;SDS011;57706;56.326;43.882;2024-01-16T09:17:59;19.95;;;9.70;;
70301;SDS011;57706;56.326;43.882;2024-01-16T09:20:25;26.95;;;12.10;;
70301;SDS011;57706;56.326;43.882;2024-01-16T09:22:51;25.60;;;12.63;;
70301;SDS011;57706;56.326;43.882;2024-01-16T09:25:17;26.60;;;12.55;;
70301;SDS011;57706;56.326;43.882;2024-01-16T09:28:01;22.70;;;10.75;;
70301;SDS011;57706;56.326;43.882;2024-01-16T09:30:27;27.45;;;11.55;;
70301;SDS011;57706;56.326;43.882;2024-01-16T09:32:53;26.60;;;12.02;;
70301;SDS011;57706;56.326;43.882;2024-01-16T09:35:19;24.27;;;10.80;;
70301;SDS011;57706;56.326;43.882;2024-01-16T09:38:04;26.45;;;11.85;;
70301;SDS011;57706;56.326;43.882;2024-01-16T09:40:33;23.23;;;11.45;;
70301;SDS011;57706;56.326;43.882;2024-01-16T09:43:00;21.92;;;9.73;;
70301;SDS011;57706;56.326;43.882;2024-01-16T09:45:27;21.23;;;11.32;;
70301;SDS011;57706;56.326;43.882;2024-01-16T09:47:55;23.13;;;10.90;;
70301;SDS011;57706;56.326;43.882;2024-01-16T09:50:22;26.55;;;10.63;;
70301;SDS011;57706;56.326;43.882;2024-01-16T09:52:48;28.10;;;12.80;;
70301;SDS011;57706;56.326;43.882;2024-01-16T09:55:14;27.80;;;13.25;;
70301;SDS011;57706;56.326;43.882;2024-01-16T09:57:41;25.90;;;10.82;;
70301;SDS011;57706;56.326;43.882;2024-01-16T10:00:10;29.23;;;12.15;;
70301;SDS011;57706;56.326;43.882;2024-01-16T10:02:40;30.10;;;11.45;;
70301;SDS011;57706;56.326;43.882;2024-01-16T10:05:09;28.25;;;12.60;;
70301;SDS011;57706;56.326;43.882;2024-01-16T10:07:40;27.27;;;11.55;;
70301;SDS011;57706;56.326;43.882;2024-01-16T10:10:09;26.10;;;9.77;;
70301;SDS011;57706;56.326;43.882;2024-01-16T10:12:39;25.88;;;9.70;;
70301;SDS011;57706;56.326;43.882;2024-01-16T10:15:06;26.48;;;9.93;;
70301;SDS011;57706;56.326;43.882;2024-01-16T10:17:37;31.05;;;11.95;;
70301;SDS011;57706;56.326;43.882;2024-01-16T10:20:05;23.55;;;8.52;;
70301;SDS011;57706;56.326;43.882;2024-01-16T10:22:32;27.50;;;12.45;;
70301;SDS011;57706;56.326;43.882;2024-01-16T10:25:16;30.83;;;13.68;;
70301;SDS011;57706;56.326;43.882;2024-01-16T10:27:42;34.22;;;14.30;;
70301;SDS011;57706;56.326;43.882;2024-01-16T10:30:08;22.70;;;8.75;;
70301;SDS011;57706;56.326;43.882;2024-01-16T10:32:39;32.17;;;14.38;;
70301;SDS011;57706;56.326;43.882;2024-01-16T10:37:51;24.30;;;10.75;;
70301;SDS011;57706;56.326;43.882;2024-01-16T10:40:20;23.80;;;10.27;;
70301;SDS011;57706;56.326;43.882;2024-01-16T10:43:03;24.83;;;10.65;;
70301;SDS011;57706;56.326;43.882;2024-01-16T10:45:30;24.95;;;10.15;;
70301;SDS011;57706;56.326;43.882;2024-01-16T10:48:01;23.42;;;10.20;;
70301;SDS011;57706;56.326;43.882;2024-01-16T10:50:38;27.88;;;12.07;;
70301;SDS011;57706;56.326;43.882;2024-01-16T10:53:23;27.77;;;10.88;;
70301;SDS011;57706;56.326;43.882;2024-01-16T10:55:51;17.70;;;6.95;;
70301;SDS011;57706;56.326;43.882;2024-01-16T10:58:22;26.30;;;10.15;;
70301;SDS011;57706;56.326;43.882;2024-01-16T11:00:50;18.85;;;8.77;;
70301;SDS011;57706;56.326;43.882;2024-01-16T11:06:08;23.50;;;9.27;;
70301;SDS011;57706;56.326;43.882;2024-01-16T11:14:07;15.77;;;6.95;;
70301;SDS011;57706;56.326;43.882;2024-01-16T11:16:33;23.30;;;9.18;;
70301;SDS011;57706;56.326;43.882;2024-01-16T11:19:00;14.38;;;6.65;;
70301;SDS011;57706;56.326;43.882;2024-01-16T11:21:29;19.65;;;8.27;;
70301;SDS011;57706;56.326;43.882;2024-01-16T11:23:55;16.77;;;6.65;;
70301;SDS011;57706;56.326;43.882;2024-01-16T11:26:24;20.05;;;9.02;;
70301;SDS011;57706;56.326;43.882;2024-01-16T11:28:55;21.85;;;9.65;;
70301;SDS011;57706;56.326;43.882;2024-01-16T11:33:53;21.13;;;9.07;;
70301;SDS011;57706;56.326;43.882;2024-01-16T11:39:22;18.58;;;7.20;;
70301;SDS011;57706;56.326;43.882;2024-01-16T11:41:55;20.83;;;8.15;;
70301;SDS011;57706;56.326;43.882;2024-01-16T11:49:42;14.73;;;7.00;;
70301;SDS011;57706;56.326;43.882;2024-01-16T11:52:08;23.20;;;8.68;;
70301;SDS011;57706;56.326;43.882;2024-01-16T11:54:36;16.70;;;6.15;;
70301;SDS011;57706;56.326;43.882;2024-01-16T11:59:52;18.00;;;8.27;;
70301;SDS011;57706;56.326;43.882;2024-01-16T12:07:54;13.57;;;5.85;;
70301;SDS011;57706;56.326;43.882;2024-01-16T12:10:48;18.02;;;7.35;;
70301;SDS011;57706;56.326;43.882;2024-01-16T12:13:14;12.35;;;7.13;;
70301;SDS011;57706;56.326;43.882;2024-01-16T12:15:40;13.65;;;5.47;;
70301;SDS011;57706;56.326;43.882;2024-01-16T12:18:07;14.93;;;6.18;;
70301;SDS011;57706;56.326;43.882;2024-01-16T12:20:34;23.17;;;9.18;;
70301;SDS011;57706;56.326;43.882;2024-01-16T12:23:02;16.20;;;7.50;;
70301;SDS011;57706;56.326;43.882;2024-01-16T12:25:31;20.30;;;8.70;;
70301;SDS011;57706;56.326;43.882;2024-01-16T12:28:01;15.02;;;7.57;;
70301;SDS011;57706;56.326;43.882;2024-01-16T12:30:49;14.57;;;6.65;;
70301;SDS011;57706;56.326;43.882;2024-01-16T12:33:21;16.58;;;8.18;;
70301;SDS011;57706;56.326;43.882;2024-01-16T12:35:48;15.98;;;7.00;;
70301;SDS011;57706;56.326;43.882;2024-01-16T12:38:14;21.63;;;9.55;;
70301;SDS011;57706;56.326;43.882;2024-01-16T12:40:42;12.77;;;6.15;;
70301;SDS011;57706;56.326;43.882;2024-01-16T12:43:16;14.10;;;6.85;;
70301;SDS011;57706;56.326;43.882;2024-01-16T12:45:44;12.07;;;4.97;;
70301;SDS011;57706;56.326;43.882;2024-01-16T12:48:10;18.02;;;7.35;;
70301;SDS011;57706;56.326;43.882;2024-01-16T12:50:36;16.23;;;7.20;;
70301;SDS011;57706;56.326;43.882;2024-01-16T12:53:06;16.08;;;7.28;;
70301;SDS011;57706;56.326;43.882;2024-01-16T12:55:35;20.45;;;9.70;;
70301;SDS011;57706;56.326;43.882;2024-01-16T12:58:12;20.92;;;9.98;;
70301;SDS011;57706;56.326;43.882;2024-01-16T13:00:43;15.32;;;7.88;;
70301;SDS011;57706;56.326;43.882;2024-01-16T13:05:43;11.90;;;5.85;;
70301;SDS011;57706;56.326;43.882;2024-01-16T13:08:16;15.00;;;6.00;;
70301;SDS011;57706;56.326;43.882;2024-01-16T13:10:42;10.52;;;5.85;;
70301;SDS011;57706;56.326;43.882;2024-01-16T13:13:15;13.43;;;5.90;;
70301;SDS011;57706;56.326;43.882;2024-01-16T13:15:43;13.23;;;6.75;;
70301;SDS011;57706;56.326;43.882;2024-01-16T13:18:19;17.42;;;7.03;;
70301;SDS011;57706;56.326;43.882;2024-01-16T13:20:49;10.93;;;5.40;;
70301;SDS011;57706;56.326;43.882;2024-01-16T13:23:16;10.77;;;5.57;;
70301;SDS011;57706;56.326;43.882;2024-01-16T13:25:42;11.02;;;5.22;;
70301;SDS011;57706;56.326;43.882;2024-01-16T13:28:09;8.27;;;4.18;;
70301;SDS011;57706;56.326;43.882;2024-01-16T13:30:35;12.25;;;5.30;;
70301;SDS011;57706;56.326;43.882;2024-01-16T13:33:02;11.20;;;5.32;;
70301;SDS011;57706;56.326;43.882;2024-01-16T13:35:30;10.90;;;5.07;;
70301;SDS011;57706;56.326;43.882;2024-01-16T13:37:56;10.50;;;5.13;;
70301;SDS011;57706;56.326;43.882;2024-01-16T13:45:34;9.95;;;5.43;;
70301;SDS011;57706;56.326;43.882;2024-01-16T13:48:01;9.20;;;4.78;;
70301;SDS011;57706;56.326;43.882;2024-01-16T13:50:27;14.98;;;6.53;;
70301;SDS011;57706;56.326;43.882;2024-01-16T13:52:53;13.85;;;5.57;;
70301;SDS011;57706;56.326;43.882;2024-01-16T13:55:20;11.25;;;5.65;;
70301;SDS011;57706;56.326;43.882;2024-01-16T13:57:46;8.27;;;5.55;;
70301;SDS011;57706;56.326;43.882;2024-01-16T14:02:56;10.50;;;4.90;;
70301;SDS011;57706;56.326;43.882;2024-01-16T14:05:22;8.05;;;3.80;;
70301;SDS011;57706;56.326;43.882;2024-01-16T14:07:49;9.57;;;4.05;;
70301;SDS011;57706;56.326;43.882;2024-01-16T14:10:16;9.68;;;4.72;;
70301;SDS011;57706;56.326;43.882;2024-01-16T14:12:44;12.25;;;5.35;;
70301;SDS011;57706;56.326;43.882;2024-01-16T14:15:12;5.82;;;3.30;;
70301;SDS011;57706;56.326;43.882;2024-01-16T14:17:42;10.23;;;5.40;;
70301;SDS011;57706;56.326;43.882;2024-01-16T14:20:12;9.18;;;4.47;;
70301;SDS011;57706;56.326;43.882;2024-01-16T14:22:39;6.93;;;3.35;;
70301;SDS011;57706;56.326;43.882;2024-01-16T14:25:08;8.02;;;4.28;;
70301;SDS011;57706;56.326;43.882;2024-01-16T14:27:41;8.13;;;3.42;;
70301;SDS011;57706;56.326;43.882;2024-01-16T14:30:10;12.95;;;5.25;;
70301;SDS011;57706;56.326;43.882;2024-01-16T14:32:38;16.60;;;6.85;;
70301;SDS011;57706;56.326;43.882;2024-01-16T14:35:06;8.88;;;3.90;;
70301;SDS011;57706;56.326;43.882;2024-01-16T14:37:51;6.22;;;3.75;;
70301;SDS011;57706;56.326;43.882;2024-01-16T14:40:17;7.05;;;3.50;;
70301;SDS011;57706;56.326;43.882;2024-01-16T14:42:47;10.85;;;5.30;;
70301;SDS011;57706;56.326;43.882;2024-01-16T14:45:31;6.90;;;3.05;;
70301;SDS011;57706;56.326;43.882;2024-01-16T14:47:57;10.25;;;5.00;;
70301;SDS011;57706;56.326;43.882;2024-01-16T14:50:24;5.72;;;3.75;;
70301;SDS011;57706;56.326;43.882;2024-01-16T14:52:50;6.00;;;3.13;;
70301;SDS011;57706;56.326;43.882;2024-01-16T14:55:17;10.30;;;4.30;;
70301;SDS011;57706;56.326;43.882;2024-01-16T14:57:45;9.25;;;4.50;;
70301;SDS011;57706;56.326;43.882;2024-01-16T15:00:15;8.93;;;4.40;;
70301;SDS011;57706;56.326;43.882;2024-01-16T15:02:46;5.85;;;3.47;;
70301;SDS011;57706;56.326;43.882;2024-01-16T15:05:14;7.45;;;3.22;;
70301;SDS011;57706;56.326;43.882;2024-01-16T15:07:58;6.15;;;3.05;;
70301;SDS011;57706;56.326;43.882;2024-01-16T15:10:24;5.57;;;2.97;;
70301;SDS011;57706;56.326;43.882;2024-01-16T15:12:50;5.53;;;2.80;;
70301;SDS011;57706;56.326;43.882;2024-01-16T15:15:16;4.75;;;2.53;;
70301;SDS011;57706;56.326;43.882;2024-01-16T15:17:42;4.18;;;2.20;;
70301;SDS011;57706;56.326;43.882;2024-01-16T15:20:09;4.38;;;2.38;;
70301;SDS011;57706;56.326;43.882;2024-01-16T15:22:42;4.82;;;2.90;;
70301;SDS011;57706;56.326;43.882;2024-01-16T15:25:09;8.05;;;4.65;;
70301;SDS011;57706;56.326;43.882;2024-01-16T15:27:35;4.80;;;2.92;;
70301;SDS011;57706;56.326;43.882;2024-01-16T15:30:02;5.32;;;2.85;;
70301;SDS011;57706;56.326;43.882;2024-01-16T15:32:31;5.25;;;2.78;;
70301;SDS011;57706;56.326;43.882;2024-01-16T15:34:57;5.93;;;2.72;;
70301;SDS011;57706;56.326;43.882;2024-01-16T15:37:23;7.57;;;3.25;;
70301;SDS011;57706;56.326;43.882;2024-01-16T15:39:49;5.22;;;2.78;;
70301;SDS011;57706;56.326;43.882;2024-01-16T15:42:15;6.43;;;3.67;;
70301;SDS011;57706;56.326;43.882;2024-01-16T15:44:42;6.03;;;3.10;;
70301;SDS011;57706;56.326;43.882;2024-01-16T15:47:08;5.53;;;3.05;;
70301;SDS011;57706;56.326;43.882;2024-01-16T15:49:34;5.20;;;2.97;;
70301;SDS011;57706;56.326;43.882;2024-01-16T15:52:01;4.47;;;2.45;;
70301;SDS011;57706;56.326;43.882;2024-01-16T15:54:30;4.47;;;2.90;;
70301;SDS011;57706;56.326;43.882;2024-01-16T15:56:56;6.70;;;2.95;;